Butterworth Airport
WMKB : now visible

Airfield :











YOU CAN JOIN US ON...

 
LOGIN :

Register | Disclaimer

   EN    FR    IT 

 









Legend :    VFR   Marginal VFR   IFR   Intensive IFR   Very Intensive IFR
Visi :
Ceiling :
>= 8 km
>= 3000ft
5 to 8 km
1000 to 3000 ft
1500m to 5 km
500 to 1000 ft
800 to 1500m
200 to 500 ft
< 800m
< 200 ft
Symbols :   Thunderstorms  Fog  Heavy snow  Heavy precipitations  Wind > 20 kt






- Airport Elevation : 11 ft
- IATA code : BWH


WMKB - Butterworth

CURRENT METAR :
  • 180600Z 06005KT 030V090 3000 -TSRA FEW017CB SCT023 BKN270 27/25 Q1009 TEMPO 2000 TSRA

EXPIRED METARs :
  • 180500Z 23006KT 170V300 8000 -SHRA FEW017CB SCT020 BKN280 30/25 Q1009 NOSIG
  • 180400Z VRB04KT 9000 SCT020 SCT140 BKN270 30/24 Q1010 NOSIG

TAF TAF WMKB
Valid from the 18 at 06:00 until the 19 at 06:00 UTC


180500Z 1806/1906 29010KT 9000 SCT020
TEMPO 1806/1810 5000 TSRA FEW010 FEW017CB
TEMPO 1811/1815 6000 -RA FEW005 SCT024
BECMG 1813/1815 VRB02KT



MET'MAP, your aeronautical weather chart ! - Copyright ORBIFLY December 2007 - Disclaimer

ORBIFLY MET'MAP TEAM :

Programming & Development : Alexandra Zaïnal
Concept & Development : Baudouin d'Aumeries
Co-Development & Prog : Marc-Olivier Méhu
Technical & hardware support : Manuel Goepfert

Contact : metmap@orbifly.com




SOURCES & CREDITS :

   NOAA       Earth
Advisory